createdAt,value
2019-05-22T00:01:18.092Z,66.46
2019-05-22T00:04:00.396Z,65.62
2019-05-22T00:06:37.802Z,65.46
2019-05-22T00:09:10.720Z,64.86
2019-05-22T00:11:43.851Z,64.68
2019-05-22T00:14:15.614Z,64.23
2019-05-22T00:16:47.023Z,64.69
2019-05-22T00:19:20.137Z,64.76
2019-05-22T00:21:52.429Z,64.76
2019-05-22T00:24:25.583Z,64.87
2019-05-22T00:26:58.483Z,64.48
2019-05-22T00:29:30.875Z,63.93
2019-05-22T00:32:03.972Z,63.59
2019-05-22T00:34:36.561Z,63.61
2019-05-22T00:37:08.301Z,63.88
2019-05-22T00:39:39.029Z,64.22
2019-05-22T00:42:11.551Z,64.11
2019-05-22T00:44:43.683Z,63.95
2019-05-22T00:47:14.914Z,64.17
2019-05-22T00:49:50.160Z,64.34
2019-05-22T00:52:25.504Z,63.75
2019-05-22T00:55:10.576Z,63.90
2019-05-22T00:57:43.604Z,63.84
2019-05-22T01:00:20.470Z,63.60
2019-05-22T01:02:52.388Z,62.99
2019-05-22T01:05:25.011Z,62.72
2019-05-22T01:07:57.036Z,62.85
2019-05-22T01:10:29.820Z,63.31
2019-05-22T01:13:00.928Z,63.56
2019-05-22T01:15:32.963Z,63.93
2019-05-22T01:18:07.635Z,64.36
2019-05-22T01:20:41.766Z,64.59
2019-05-22T01:23:14.342Z,65.26
2019-05-22T01:25:46.106Z,65.53
2019-05-22T01:28:17.702Z,65.38
2019-05-22T01:30:50.899Z,65.62
2019-05-22T01:33:23.685Z,65.67
2019-05-22T01:36:00.070Z,64.73
2019-05-22T01:38:32.746Z,65.34
2019-05-22T01:41:10.951Z,64.52
2019-05-22T01:43:42.268Z,64.67
2019-05-22T01:46:14.495Z,63.49
2019-05-22T01:48:46.217Z,63.68
2019-05-22T01:51:18.324Z,63.39
2019-05-22T01:53:52.015Z,63.62
2019-05-22T01:56:25.015Z,63.03
2019-05-22T01:58:56.049Z,63.13
2019-05-22T02:01:28.017Z,62.52
2019-05-22T02:04:00.166Z,62.19
2019-05-22T02:06:31.087Z,61.54
2019-05-22T02:09:24.186Z,61.50
2019-05-22T02:11:58.082Z,61.54
2019-05-22T02:14:30.763Z,61.36
2019-05-22T02:17:03.348Z,60.92
2019-05-22T02:19:34.482Z,60.45
2019-05-22T02:22:07.163Z,60.66
2019-05-22T02:24:39.323Z,60.79
2019-05-22T02:27:10.372Z,61.16
2019-05-22T02:29:41.859Z,61.95
2019-05-22T02:32:14.070Z,61.61
2019-05-22T02:34:45.032Z,61.42
2019-05-22T02:37:17.849Z,61.80
2019-05-22T02:39:50.708Z,61.84
2019-05-22T02:42:28.548Z,61.93
2019-05-22T02:45:00.060Z,61.93
2019-05-22T02:47:30.783Z,61.88
2019-05-22T02:50:02.144Z,62.00
2019-05-22T02:52:33.813Z,61.97
2019-05-22T02:55:07.073Z,61.38
2019-05-22T02:57:38.546Z,61.20
2019-05-22T03:00:11.407Z,60.76
2019-05-22T03:02:54.447Z,60.53
2019-05-22T03:05:25.894Z,60.38
2019-05-22T03:07:58.489Z,60.31
2019-05-22T03:10:31.289Z,59.71
2019-05-22T03:13:02.716Z,60.05
2019-05-22T03:15:33.946Z,60.11
2019-05-22T03:18:08.292Z,60.19
2019-05-22T03:20:40.602Z,59.91
2019-05-22T03:23:35.024Z,59.72
2019-05-22T03:26:09.308Z,60.15
2019-05-22T03:28:41.211Z,59.96
2019-05-22T03:31:13.523Z,60.00
2019-05-22T03:33:45.541Z,59.32
2019-05-22T03:36:18.524Z,59.34
2019-05-22T03:38:49.458Z,60.03
2019-05-22T03:41:23.200Z,60.14
2019-05-22T03:43:55.948Z,59.84
2019-05-22T03:46:36.291Z,58.84
2019-05-22T03:49:27.987Z,59.99
2019-05-22T03:51:47.811Z,60.08
2019-05-22T03:54:19.876Z,61.82
2019-05-22T03:56:52.347Z,62.46
2019-05-22T03:59:23.906Z,63.26
2019-05-22T04:01:56.418Z,62.92
2019-05-22T04:04:36.933Z,62.81
2019-05-22T04:07:12.450Z,62.04
2019-05-22T04:09:46.192Z,62.85
2019-05-22T04:12:19.799Z,62.49
2019-05-22T04:14:51.338Z,61.45
2019-05-22T04:17:22.192Z,61.50
2019-05-22T04:19:54.610Z,62.77
2019-05-22T04:22:25.792Z,65.20
2019-05-22T04:24:56.840Z,67.70
2019-05-22T04:27:28.078Z,69.58
2019-05-22T04:29:59.944Z,69.85
2019-05-22T04:32:32.215Z,69.95
2019-05-22T04:35:10.307Z,70.40
2019-05-22T04:37:43.146Z,71.76
2019-05-22T04:40:25.922Z,73.50
2019-05-22T04:42:58.972Z,76.94
2019-05-22T04:45:30.382Z,81.92
2019-05-22T04:48:03.015Z,85.04
2019-05-22T04:50:35.441Z,86.40
2019-05-22T04:53:06.450Z,88.03
2019-05-22T04:55:37.300Z,88.33
2019-05-22T04:58:13.250Z,88.37
2019-05-22T05:00:44.618Z,89.24
2019-05-22T05:03:17.277Z,90.12
2019-05-22T05:05:54.758Z,90.99
2019-05-22T05:08:25.496Z,91.32
2019-05-22T05:10:58.388Z,91.93
2019-05-22T05:13:29.316Z,91.79
2019-05-22T05:16:00.364Z,92.31
2019-05-22T05:18:32.015Z,92.67
2019-05-22T05:21:03.238Z,92.51
2019-05-22T05:23:34.504Z,93.18
2019-05-22T05:26:05.241Z,93.79
2019-05-22T05:28:36.494Z,93.58
2019-05-22T05:31:07.393Z,93.93
2019-05-22T05:33:52.711Z,94.03
2019-05-22T05:36:23.839Z,94.80
2019-05-22T05:38:55.904Z,96.06
2019-05-22T05:41:27.802Z,96.20
2019-05-22T05:44:00.612Z,96.17
2019-05-22T05:46:32.064Z,95.93
2019-05-22T05:49:05.536Z,96.32
2019-05-22T05:51:38.586Z,96.46
2019-05-22T05:54:13.009Z,96.65
2019-05-22T05:56:46.095Z,96.30
2019-05-22T05:59:18.939Z,96.23
2019-05-22T06:01:53.519Z,96.30
2019-05-22T06:04:35.118Z,96.52
2019-05-22T06:07:21.185Z,96.48
2019-05-22T06:09:54.714Z,96.47
2019-05-22T06:12:26.024Z,96.68
2019-05-22T06:14:57.053Z,97.12
2019-05-22T06:17:58.521Z,97.31
2019-05-22T06:20:30.959Z,97.44
2019-05-22T06:23:28.551Z,98.05
2019-05-22T06:26:02.868Z,97.97
2019-05-22T06:28:38.713Z,98.12
2019-05-22T06:31:18.990Z,97.81
2019-05-22T06:33:49.732Z,98.02
2019-05-22T06:36:22.960Z,99.00
2019-05-22T06:39:00.926Z,98.82
2019-05-22T06:41:38.683Z,97.35
2019-05-22T06:44:21.838Z,97.06
2019-05-22T06:46:54.000Z,96.69
2019-05-22T06:49:36.775Z,96.31
2019-05-22T06:52:09.577Z,96.38
2019-05-22T06:54:40.635Z,96.68
2019-05-22T06:57:13.819Z,96.58
2019-05-22T06:59:45.655Z,97.23
2019-05-22T07:02:17.968Z,98.15
2019-05-22T07:04:50.459Z,98.27
2019-05-22T07:07:22.138Z,98.30
2019-05-22T07:09:55.874Z,98.11
2019-05-22T07:12:28.459Z,97.84
2019-05-22T07:15:04.485Z,97.21
2019-05-22T07:17:36.300Z,95.89
2019-05-22T07:20:08.128Z,95.05
2019-05-22T07:22:39.876Z,93.84
2019-05-22T07:25:12.081Z,92.34
2019-05-22T07:33:53.044Z,91.92
2019-05-22T07:36:25.791Z,92.02
2019-05-22T07:38:56.629Z,91.50
2019-05-22T07:41:27.621Z,91.09
2019-05-22T07:43:59.140Z,89.29
2019-05-22T07:46:31.285Z,90.65
2019-05-22T07:49:03.121Z,88.31
2019-05-22T07:51:50.606Z,87.44
2019-05-22T07:54:08.967Z,85.64
2019-05-22T07:56:41.813Z,84.95
2019-05-22T07:59:13.543Z,87.44
2019-05-22T08:01:44.174Z,86.82
2019-05-22T08:04:15.186Z,86.19
2019-05-22T08:06:46.426Z,85.83
2019-05-22T08:09:21.649Z,85.59
2019-05-22T08:11:54.333Z,84.52
2019-05-22T08:14:26.577Z,83.71
2019-05-22T08:16:57.178Z,84.88
2019-05-22T08:19:27.899Z,84.82
2019-05-22T08:22:07.107Z,82.52
2019-05-22T08:24:35.786Z,79.41
2019-05-22T08:27:08.014Z,75.35
2019-05-22T08:29:39.234Z,79.78
2019-05-22T08:32:09.864Z,77.80
2019-05-22T08:34:43.254Z,78.95
2019-05-22T08:37:18.801Z,77.08
2019-05-22T08:39:49.819Z,80.03
2019-05-22T08:42:21.825Z,83.00
2019-05-22T08:44:52.507Z,83.16
2019-05-22T08:47:23.654Z,81.42
2019-05-22T08:49:55.326Z,78.90
2019-05-22T08:52:26.664Z,75.97
2019-05-22T08:54:58.325Z,73.66
2019-05-22T08:57:30.708Z,73.78
2019-05-22T09:00:05.918Z,74.02
2019-05-22T09:02:36.824Z,75.37
2019-05-22T09:05:08.588Z,76.17
2019-05-22T09:07:40.093Z,76.94
2019-05-22T09:10:11.433Z,76.27
2019-05-22T09:12:42.243Z,76.82
2019-05-22T09:15:13.303Z,77.77
2019-05-22T09:17:45.108Z,78.05
2019-05-22T09:20:16.116Z,78.77
2019-05-22T09:22:47.331Z,79.01
2019-05-22T09:25:18.170Z,80.02
2019-05-22T09:27:49.121Z,81.33
2019-05-22T09:30:20.648Z,80.89
2019-05-22T09:32:52.897Z,80.10
2019-05-22T09:35:23.659Z,79.66
2019-05-22T09:37:54.383Z,80.73
2019-05-22T09:40:25.598Z,81.94
2019-05-22T09:42:57.016Z,82.01
2019-05-22T09:45:27.653Z,82.75
2019-05-22T09:47:59.551Z,82.80
2019-05-22T09:50:30.307Z,82.67
2019-05-22T09:53:00.916Z,83.31
2019-05-22T09:55:31.988Z,83.48
2019-05-22T09:58:02.789Z,84.64
2019-05-22T10:00:33.697Z,85.52
2019-05-22T10:03:05.806Z,85.45
2019-05-22T10:05:36.844Z,85.43
2019-05-22T10:08:07.746Z,85.48
2019-05-22T10:10:38.766Z,85.77
2019-05-22T10:13:09.909Z,86.73
2019-05-22T10:15:40.550Z,87.96
2019-05-22T10:18:11.196Z,88.05
2019-05-22T10:20:41.883Z,89.18
2019-05-22T10:23:15.864Z,89.04
2019-05-22T10:25:45.245Z,88.86
2019-05-22T10:28:16.443Z,90.37
2019-05-22T10:30:47.567Z,91.27
2019-05-22T10:33:18.516Z,91.53
2019-05-22T10:35:49.129Z,92.48
2019-05-22T10:38:20.601Z,92.70
2019-05-22T10:40:52.829Z,94.11
2019-05-22T10:43:23.797Z,94.51
2019-05-22T10:45:54.636Z,94.82
2019-05-22T10:48:25.644Z,96.15
2019-05-22T10:50:56.325Z,95.79
2019-05-22T10:53:33.523Z,96.65
2019-05-22T10:56:01.203Z,97.22
2019-05-22T10:58:32.494Z,97.50
2019-05-22T11:01:04.197Z,97.84
2019-05-22T11:03:35.465Z,98.20
2019-05-22T11:06:08.549Z,99.07
2019-05-22T11:08:40.746Z,99.60
2019-05-22T11:11:11.491Z,99.64
2019-05-22T11:14:00.053Z,99.99
2019-05-22T11:16:17.968Z,100.00
2019-05-22T11:18:49.316Z,100.00
2019-05-22T11:21:20.298Z,100.00
2019-05-22T11:23:53.037Z,100.00
2019-05-22T11:26:25.564Z,100.00
2019-05-22T11:28:58.389Z,100.00
2019-05-22T11:31:29.376Z,100.00
2019-05-22T11:34:02.069Z,100.00
2019-05-22T11:36:33.496Z,100.00
2019-05-22T11:39:05.600Z,100.00
2019-05-22T11:41:36.311Z,100.00
2019-05-22T11:44:08.936Z,100.00
2019-05-22T11:46:40.953Z,100.00
2019-05-22T11:49:12.425Z,100.00
2019-05-22T11:51:45.908Z,100.00
2019-05-22T11:54:18.025Z,100.00
2019-05-22T11:56:51.293Z,100.00
2019-05-22T11:59:24.323Z,100.00
2019-05-22T12:01:55.235Z,100.00
2019-05-22T12:04:26.363Z,100.00
2019-05-22T12:06:57.153Z,99.66
2019-05-22T12:09:28.729Z,99.48
2019-05-22T12:12:01.140Z,98.43
2019-05-22T12:14:32.340Z,98.18
2019-05-22T12:17:03.560Z,98.35
2019-05-22T12:19:34.589Z,98.38
2019-05-22T12:22:09.568Z,97.85
2019-05-22T12:24:40.855Z,96.36
2019-05-22T12:27:12.490Z,94.15
2019-05-22T12:29:43.625Z,93.17
2019-05-22T12:32:14.518Z,91.61
2019-05-22T12:34:45.231Z,91.85
2019-05-22T12:37:16.586Z,91.63
2019-05-22T12:39:47.485Z,91.52
2019-05-22T12:42:18.867Z,91.82
2019-05-22T12:44:49.814Z,91.24
2019-05-22T12:47:24.281Z,91.11
2019-05-22T12:49:55.781Z,90.32
2019-05-22T12:52:27.854Z,85.76
2019-05-22T12:54:59.158Z,84.37
2019-05-22T12:57:29.842Z,84.05
2019-05-22T13:00:02.823Z,83.94
2019-05-22T13:02:36.755Z,82.56
2019-05-22T13:05:13.822Z,83.36
2019-05-22T13:07:41.718Z,82.56
2019-05-22T13:10:12.841Z,83.58
2019-05-22T13:12:43.569Z,82.91
2019-05-22T13:15:15.971Z,84.55
2019-05-22T13:17:47.686Z,83.67
2019-05-22T13:20:41.843Z,83.40
2019-05-22T13:23:03.640Z,84.17
2019-05-22T13:25:37.112Z,83.79
2019-05-22T13:28:08.939Z,84.00
2019-05-22T13:30:42.880Z,83.09
2019-05-22T13:33:18.133Z,83.12
2019-05-22T13:35:48.781Z,83.55
2019-05-22T13:38:19.585Z,83.57
2019-05-22T13:40:52.303Z,85.75
2019-05-22T13:43:24.097Z,86.24
2019-05-22T13:45:55.097Z,86.15
2019-05-22T13:48:27.388Z,86.82
2019-05-22T13:50:59.400Z,87.26
2019-05-22T13:53:32.223Z,86.34
2019-05-22T13:56:04.711Z,87.06
2019-05-22T13:58:35.942Z,85.07
2019-05-22T14:01:13.800Z,85.82
2019-05-22T14:03:48.259Z,84.47
2019-05-22T14:06:20.453Z,83.30
2019-05-22T14:08:53.951Z,81.86
2019-05-22T14:11:28.428Z,82.91
2019-05-22T14:14:01.478Z,81.58
2019-05-22T14:16:47.554Z,83.65
2019-05-22T14:19:08.195Z,85.75
2019-05-22T14:21:40.242Z,83.89
2019-05-22T14:24:10.885Z,83.70
2019-05-22T14:26:41.579Z,84.12
2019-05-22T14:29:13.693Z,83.65
2019-05-22T14:31:44.432Z,83.75
2019-05-22T14:34:15.557Z,84.36
2019-05-22T14:36:46.570Z,84.44
2019-05-22T14:39:17.758Z,82.31
2019-05-22T14:41:48.611Z,83.33
2019-05-22T14:44:20.291Z,84.52
2019-05-22T14:46:50.986Z,86.02
2019-05-22T14:49:23.345Z,86.98
2019-05-22T14:51:56.324Z,85.77
2019-05-22T14:54:28.563Z,85.72
2019-05-22T14:57:01.047Z,84.50
2019-05-22T14:59:32.451Z,83.40
2019-05-22T15:02:04.263Z,83.36
2019-05-22T15:04:35.378Z,85.72
2019-05-22T15:07:10.374Z,85.18
2019-05-22T15:09:44.290Z,83.79
2019-05-22T15:12:15.064Z,85.36
2019-05-22T15:14:45.854Z,84.24
2019-05-22T15:17:31.940Z,82.14
2019-05-22T15:19:50.917Z,79.37
2019-05-22T15:22:21.808Z,82.12
2019-05-22T15:24:55.984Z,81.63
2019-05-22T15:27:28.168Z,82.67
2019-05-22T15:30:00.357Z,83.04
2019-05-22T15:32:31.815Z,83.90
2019-05-22T15:35:06.299Z,83.71
2019-05-22T15:37:37.726Z,85.16
2019-05-22T15:40:12.824Z,84.73
2019-05-22T15:42:45.513Z,84.52
2019-05-22T15:45:24.712Z,85.55
2019-05-22T15:48:01.887Z,85.46
2019-05-22T15:50:35.349Z,86.20
2019-05-22T15:53:13.377Z,86.42
2019-05-22T15:55:42.880Z,85.10
2019-05-22T15:58:15.455Z,85.85
2019-05-22T16:00:50.661Z,85.33
2019-05-22T16:03:24.817Z,85.00
2019-05-22T16:05:57.106Z,84.31
2019-05-22T16:08:30.264Z,85.51
2019-05-22T16:11:09.314Z,84.31
2019-05-22T16:13:41.529Z,83.90
2019-05-22T16:16:13.241Z,85.94
2019-05-22T16:18:48.612Z,86.90
2019-05-22T16:21:22.832Z,88.17
2019-05-22T16:23:55.024Z,87.20
2019-05-22T16:26:27.118Z,88.45
2019-05-22T16:29:01.482Z,88.75
2019-05-22T16:31:32.926Z,89.30
2019-05-22T16:34:11.548Z,89.85
2019-05-22T16:36:40.230Z,90.78
2019-05-22T16:39:12.270Z,92.06
2019-05-22T16:41:43.227Z,91.58
2019-05-22T16:44:15.113Z,90.35
2019-05-22T16:46:47.116Z,92.65
2019-05-22T16:49:17.999Z,93.08
2019-05-22T16:51:48.914Z,92.93
2019-05-22T16:54:21.120Z,93.60
2019-05-22T16:56:52.988Z,93.40
2019-05-22T16:59:23.738Z,93.92
2019-05-22T17:01:59.208Z,93.42
2019-05-22T17:04:28.036Z,94.03
2019-05-22T17:07:00.395Z,94.54
2019-05-22T17:09:32.624Z,94.85
2019-05-22T17:12:05.199Z,95.24
2019-05-22T17:14:37.239Z,95.78
2019-05-22T17:17:09.952Z,96.69
2019-05-22T17:19:41.297Z,97.36
2019-05-22T17:22:14.248Z,97.96
2019-05-22T17:24:45.816Z,98.46
2019-05-22T17:27:17.451Z,99.07
2019-05-22T17:29:51.007Z,99.61
2019-05-22T17:32:23.912Z,100.00
2019-05-22T17:34:55.025Z,100.00
2019-05-22T17:37:26.865Z,100.00
2019-05-22T17:39:58.878Z,100.00
2019-05-22T17:42:32.016Z,100.00
2019-05-22T17:45:05.017Z,100.00
2019-05-22T17:47:36.263Z,100.00
2019-05-22T17:50:25.426Z,100.00
2019-05-22T17:52:45.352Z,100.00
2019-05-22T17:55:17.478Z,100.00
2019-05-22T17:57:48.822Z,100.00
2019-05-22T18:00:25.402Z,100.00
2019-05-22T18:02:56.974Z,100.00
2019-05-22T18:05:29.194Z,100.00
2019-05-22T18:08:01.082Z,100.00
2019-05-22T18:10:39.854Z,100.00
2019-05-22T18:13:09.206Z,100.00
2019-05-22T18:15:40.452Z,100.00
2019-05-22T18:18:12.937Z,100.00
2019-05-22T18:20:44.605Z,100.00
2019-05-22T18:23:15.408Z,100.00
2019-05-22T18:25:51.684Z,100.00
2019-05-22T18:28:25.220Z,100.00
2019-05-22T18:30:56.952Z,100.00
2019-05-22T18:33:28.086Z,100.00
2019-05-22T18:35:59.321Z,100.00
2019-05-22T18:38:30.477Z,100.00
2019-05-22T18:41:01.711Z,100.00
2019-05-22T18:43:35.879Z,100.00
2019-05-22T18:46:06.870Z,100.00
2019-05-22T18:48:38.147Z,100.00
2019-05-22T18:51:09.854Z,100.00
2019-05-22T18:53:40.823Z,100.00
2019-05-22T18:56:12.063Z,100.00
2019-05-22T18:58:43.804Z,100.00
2019-05-22T19:01:16.534Z,100.00
2019-05-22T19:03:47.519Z,100.00
2019-05-22T19:06:29.762Z,100.00
2019-05-22T19:08:52.511Z,100.00
2019-05-22T19:11:23.725Z,100.00
2019-05-22T19:13:54.668Z,100.00
2019-05-22T19:16:26.217Z,100.00
2019-05-22T19:19:00.537Z,100.00
2019-05-22T19:21:31.334Z,100.00
2019-05-22T19:24:03.440Z,100.00
2019-05-22T19:26:34.076Z,100.00
2019-05-22T19:29:05.534Z,100.00
2019-05-22T19:31:36.350Z,100.00
2019-05-22T19:34:09.280Z,100.00
2019-05-22T19:36:45.847Z,100.00
2019-05-22T19:39:18.963Z,100.00
2019-05-22T19:42:02.117Z,100.00
2019-05-22T19:44:22.995Z,100.00
2019-05-22T19:46:53.902Z,100.00
2019-05-22T19:49:25.216Z,100.00
2019-05-22T19:51:58.438Z,100.00
2019-05-22T19:54:29.498Z,100.00
2019-05-22T19:57:00.600Z,100.00
2019-05-22T19:59:31.736Z,100.00
2019-05-22T20:02:03.233Z,100.00
2019-05-22T20:04:39.084Z,100.00
2019-05-22T20:07:18.704Z,100.00
2019-05-22T20:09:49.888Z,100.00
2019-05-22T20:12:24.923Z,100.00
2019-05-22T20:14:56.441Z,100.00
2019-05-22T20:17:30.040Z,100.00
2019-05-22T20:20:02.011Z,100.00
2019-05-22T20:22:34.186Z,100.00
2019-05-22T20:25:09.375Z,100.00
2019-05-22T20:27:41.490Z,100.00
2019-05-22T20:30:15.912Z,100.00
2019-05-22T20:32:46.565Z,100.00
2019-05-22T20:35:19.276Z,100.00
2019-05-22T20:37:52.126Z,100.00
2019-05-22T20:40:23.612Z,100.00
2019-05-22T20:42:54.712Z,100.00
2019-05-22T20:45:25.758Z,100.00
2019-05-22T20:48:07.922Z,100.00
2019-05-22T20:50:40.769Z,100.00
2019-05-22T20:53:13.610Z,100.00
2019-05-22T20:55:45.551Z,100.00
2019-05-22T20:58:17.927Z,100.00
2019-05-22T21:00:51.570Z,100.00
2019-05-22T21:03:23.716Z,100.00
2019-05-22T21:05:54.766Z,100.00
2019-05-22T21:08:29.472Z,100.00
2019-05-22T21:11:01.654Z,100.00
2019-05-22T21:13:34.011Z,100.00
2019-05-22T21:16:05.524Z,98.94
2019-05-22T21:18:39.587Z,97.30
2019-05-22T21:21:10.279Z,96.71
2019-05-22T21:23:43.432Z,97.35
2019-05-22T21:26:15.618Z,97.41
2019-05-22T21:28:48.152Z,97.20
2019-05-22T21:31:21.124Z,97.14
2019-05-22T21:33:52.077Z,97.27
2019-05-22T21:36:23.961Z,96.99
2019-05-22T21:38:55.704Z,97.15
2019-05-22T21:41:26.295Z,96.84
2019-05-22T21:43:58.937Z,97.30
2019-05-22T21:46:29.759Z,97.24
2019-05-22T21:49:01.712Z,97.87
2019-05-22T21:51:45.198Z,98.24
2019-05-22T21:54:16.471Z,98.10
2019-05-22T21:56:50.473Z,98.53
2019-05-22T21:59:21.749Z,98.69
2019-05-22T22:01:54.673Z,98.96
2019-05-22T22:04:30.923Z,98.93
2019-05-22T22:07:02.083Z,99.43
2019-05-22T22:09:32.965Z,99.75
2019-05-22T22:12:04.912Z,99.97
2019-05-22T22:14:37.195Z,100.00
2019-05-22T22:17:10.232Z,99.87
2019-05-22T22:19:41.248Z,99.90
2019-05-22T22:22:16.334Z,99.45
2019-05-22T22:24:48.058Z,99.65
2019-05-22T22:27:20.058Z,99.56
2019-05-22T22:29:53.628Z,99.91
2019-05-22T22:32:26.406Z,99.73
2019-05-22T22:34:59.070Z,100.00
2019-05-22T22:37:31.582Z,100.00
2019-05-22T22:40:05.848Z,99.81
2019-05-22T22:42:38.116Z,99.87
2019-05-22T22:45:13.193Z,99.32
2019-05-22T22:47:47.874Z,99.45
2019-05-22T22:50:18.795Z,99.48
2019-05-22T22:52:49.509Z,99.24
2019-05-22T22:55:22.178Z,99.31
2019-05-22T22:57:53.351Z,98.83
2019-05-22T23:00:27.691Z,99.14
2019-05-22T23:03:00.027Z,98.83
2019-05-22T23:05:33.145Z,98.79
2019-05-22T23:08:05.663Z,99.06
2019-05-22T23:10:36.499Z,98.74
2019-05-22T23:13:07.430Z,98.27
2019-05-22T23:15:42.453Z,98.63
2019-05-22T23:18:19.809Z,98.70
2019-05-22T23:20:49.687Z,98.39
2019-05-22T23:23:22.957Z,98.39
2019-05-22T23:25:54.625Z,98.19
2019-05-22T23:28:34.582Z,98.18
2019-05-22T23:30:59.921Z,98.35
2019-05-22T23:33:31.460Z,98.11
2019-05-22T23:36:02.842Z,98.10
2019-05-22T23:38:39.316Z,98.15
2019-05-22T23:41:10.456Z,98.08
2019-05-22T23:43:42.632Z,98.39
2019-05-22T23:46:14.941Z,98.20
2019-05-22T23:48:46.438Z,98.33
2019-05-22T23:51:18.771Z,98.21
2019-05-22T23:53:51.181Z,98.33
2019-05-22T23:56:22.523Z,98.44
2019-05-22T23:58:54.965Z,98.35
